Wetterdaten: Woche 07.04.14 - 13.04.14 (KW15)
Datum Zeit Temperatur Luftfeuchte Luftdruck Niederschlag Windrichtung Sonnenschein Solar Wind
07.04.2014 00:00 8,3 C 88 % 1018,7 hPa 0,0 l/m N 0,00 h 0 W/m 0,0 km/h (0 Bft)
07.04.2014 01:00 7,6 C 89 % 1018,8 hPa 0,0 l/m N 0,00 h 0 W/m 0,0 km/h (0 Bft)
07.04.2014 02:00 6,8 C 90 % 1018,8 hPa 0,0 l/m N 0,00 h 0 W/m 0,0 km/h (0 Bft)
07.04.2014 03:00 6,3 C 91 % 1018,6 hPa 0,0 l/m N 0,00 h 0 W/m 0,0 km/h (0 Bft)
07.04.2014 04:00 5,8 C 91 % 1018,3 hPa 0,0 l/m N 0,00 h 0 W/m 0,0 km/h (0 Bft)
07.04.2014 05:00 5,2 C 92 % 1018,3 hPa 0,0 l/m N 0,00 h 0 W/m 0,1 km/h (0 Bft)
07.04.2014 06:00 4,7 C 92 % 1018,4 hPa 0,0 l/m N 0,00 h 6 W/m 0,0 km/h (0 Bft)
07.04.2014 07:00 4,4 C 93 % 1018,4 hPa 0,0 l/m N 0,08 h 30 W/m 0,0 km/h (0 Bft)
07.04.2014 08:00 6,4 C 96 % 1018,6 hPa 0,0 l/m N 0,58 h 171 W/m 1,3 km/h (1 Bft)
07.04.2014 09:00 10,6 C 88 % 1018,3 hPa 0,0 l/m N 1,00 h 347 W/m 2,1 km/h (1 Bft)
07.04.2014 10:00 13,9 C 75 % 1018,3 hPa 0,0 l/m W-SW 1,00 h 504 W/m 5,2 km/h (1 Bft)
07.04.2014 11:00 15,7 C 67 % 1018,0 hPa 0,0 l/m W-SW 1,00 h 629 W/m 5,3 km/h (1 Bft)
07.04.2014 12:00 17,7 C 61 % 1017,2 hPa 0,0 l/m SO 1,00 h 664 W/m 8,2 km/h (2 Bft)
07.04.2014 13:00 19,3 C 55 % 1016,4 hPa 0,0 l/m O-SO 1,00 h 655 W/m 10,1 km/h (2 Bft)
07.04.2014 14:00 20,1 C 51 % 1015,5 hPa 0,0 l/m O-SO 0,92 h 558 W/m 8,8 km/h (2 Bft)
07.04.2014 15:00 20,6 C 42 % 1014,7 hPa 0,0 l/m O-SO 0,50 h 405 W/m 6,4 km/h (2 Bft)
07.04.2014 16:00 20,2 C 48 % 1014,0 hPa 0,0 l/m S-SW 0,00 h 229 W/m 7,8 km/h (2 Bft)
07.04.2014 17:00 19,3 C 48 % 1013,6 hPa 0,0 l/m W-SW 0,00 h 131 W/m 11,0 km/h (2 Bft)
07.04.2014 18:00 18,1 C 53 % 1013,2 hPa 0,0 l/m W-SW 0,00 h 69 W/m 7,5 km/h (2 Bft)
07.04.2014 19:00 16,7 C 57 % 1013,1 hPa 0,0 l/m SW 0,00 h 17 W/m 5,9 km/h (2 Bft)
07.04.2014 20:00 15,4 C 59 % 1013,5 hPa 0,0 l/m SW 0,00 h 0 W/m 2,9 km/h (1 Bft)
07.04.2014 21:00 13,7 C 65 % 1013,9 hPa 0,0 l/m SW 0,00 h 0 W/m 3,1 km/h (1 Bft)
07.04.2014 22:00 13,0 C 69 % 1013,8 hPa 0,0 l/m N 0,00 h 0 W/m 2,1 km/h (1 Bft)
07.04.2014 23:00 11,7 C 73 % 1013,7 hPa 0,0 l/m SW 0,00 h 0 W/m 7,8 km/h (2 Bft)
08.04.2014 00:00 12,9 C 71 % 1013,7 hPa 0,0 l/m SW 0,00 h 0 W/m 12,9 km/h (3 Bft)
08.04.2014 01:00 12,2 C 73 % 1013,5 hPa 0,0 l/m SW 0,00 h 0 W/m 6,6 km/h (2 Bft)
08.04.2014 02:00 10,6 C 79 % 1013,2 hPa 0,0 l/m N 0,00 h 0 W/m 1,5 km/h (1 Bft)
08.04.2014 03:00 10,8 C 79 % 1012,8 hPa 0,0 l/m SW 0,00 h 0 W/m 5,5 km/h (1 Bft)
08.04.2014 04:00 13,1 C 71 % 1013,2 hPa 0,0 l/m SW 0,00 h 0 W/m 17,6 km/h (3 Bft)
08.04.2014 05:00 14,8 C 66 % 1013,2 hPa 0,0 l/m W 0,00 h 0 W/m 17,2 km/h (3 Bft)
08.04.2014 06:00 12,3 C 77 % 1013,3 hPa 0,0 l/m W 0,00 h 0 W/m 3,6 km/h (1 Bft)
08.04.2014 07:00 11,3 C 88 % 1013,7 hPa 1,6 l/m W-SW 0,00 h 8 W/m 15,0 km/h (3 Bft)
08.04.2014 08:00 11,7 C 91 % 1014,5 hPa 0,2 l/m W-SW 0,00 h 25 W/m 23,1 km/h (4 Bft)
08.04.2014 09:00 11,5 C 91 % 1015,3 hPa 0,6 l/m W-SW 0,00 h 34 W/m 29,9 km/h (5 Bft)
08.04.2014 10:00 11,0 C 92 % 1016,1 hPa 0,8 l/m W 0,00 h 52 W/m 23,6 km/h (4 Bft)
08.04.2014 11:00 10,9 C 92 % 1016,3 hPa 0,2 l/m W-SW 0,00 h 115 W/m 20,8 km/h (4 Bft)
08.04.2014 12:00 11,2 C 90 % 1016,5 hPa 0,0 l/m W-SW 0,00 h 75 W/m 23,3 km/h (4 Bft)
08.04.2014 13:00 11,1 C 91 % 1016,4 hPa 0,0 l/m W-SW 0,00 h 121 W/m 19,0 km/h (3 Bft)
08.04.2014 14:00 10,2 C 86 % 1016,6 hPa 0,0 l/m W-NW 0,00 h 99 W/m 11,4 km/h (2 Bft)
08.04.2014 15:00 11,9 C 85 % 1016,2 hPa 0,0 l/m SW 0,25 h 354 W/m 10,9 km/h (2 Bft)
08.04.2014 16:00 12,8 C 80 % 1016,0 hPa 0,0 l/m W-SW 0,17 h 186 W/m 18,4 km/h (3 Bft)
08.04.2014 17:00 13,2 C 76 % 1016,1 hPa 0,0 l/m W 0,33 h 186 W/m 13,0 km/h (3 Bft)
08.04.2014 18:00 12,7 C 60 % 1017,0 hPa 0,0 l/m W-NW 0,17 h 110 W/m 21,2 km/h (4 Bft)
08.04.2014 19:00 11,0 C 61 % 1018,1 hPa 0,0 l/m W-NW 0,17 h 22 W/m 16,2 km/h (3 Bft)
08.04.2014 20:00 9,7 C 64 % 1019,4 hPa 0,0 l/m N-NW 0,00 h 0 W/m 11,7 km/h (2 Bft)
08.04.2014 21:00 9,2 C 63 % 1020,4 hPa 0,0 l/m W-NW 0,00 h 0 W/m 14,4 km/h (3 Bft)
08.04.2014 22:00 8,9 C 62 % 1021,0 hPa 0,0 l/m W-NW 0,00 h 0 W/m 14,1 km/h (3 Bft)
08.04.2014 23:00 8,5 C 64 % 1021,4 hPa 0,0 l/m NW 0,00 h 0 W/m 8,2 km/h (2 Bft)
09.04.2014 00:00 8,2 C 66 % 1021,8 hPa 0,0 l/m NW 0,00 h 0 W/m 9,9 km/h (2 Bft)
09.04.2014 01:00 7,9 C 66 % 1022,2 hPa 0,0 l/m W-NW 0,00 h 0 W/m 16,8 km/h (3 Bft)
09.04.2014 02:00 7,5 C 68 % 1022,4 hPa 0,0 l/m W-NW 0,00 h 0 W/m 21,9 km/h (4 Bft)
09.04.2014 03:00 6,7 C 69 % 1022,6 hPa 0,0 l/m W-NW 0,00 h 0 W/m 18,1 km/h (3 Bft)
09.04.2014 04:00 6,0 C 72 % 1022,9 hPa 0,0 l/m W-NW 0,00 h 0 W/m 16,9 km/h (3 Bft)
09.04.2014 05:00 5,1 C 75 % 1023,4 hPa 0,0 l/m W-NW 0,00 h 0 W/m 10,5 km/h (2 Bft)
09.04.2014 06:00 4,4 C 78 % 1023,8 hPa 0,0 l/m W-NW 0,00 h 7 W/m 6,0 km/h (2 Bft)
09.04.2014 07:00 4,0 C 81 % 1024,3 hPa 0,0 l/m W-NW 0,00 h 40 W/m 4,1 km/h (1 Bft)
09.04.2014 08:00 5,4 C 77 % 1024,8 hPa 0,0 l/m W-NW 0,83 h 198 W/m 8,3 km/h (2 Bft)
09.04.2014 09:00 7,0 C 69 % 1025,1 hPa 0,0 l/m NW 1,00 h 377 W/m 9,9 km/h (2 Bft)
09.04.2014 10:00 8,1 C 63 % 1025,2 hPa 0,0 l/m W-NW 0,92 h 509 W/m 11,3 km/h (2 Bft)
09.04.2014 11:00 9,2 C 58 % 1025,0 hPa 0,0 l/m W-NW 0,42 h 404 W/m 11,2 km/h (2 Bft)
09.04.2014 12:00 10,0 C 53 % 1024,7 hPa 0,0 l/m W 0,58 h 542 W/m 16,2 km/h (3 Bft)
09.04.2014 13:00 11,5 C 50 % 1024,2 hPa 0,0 l/m W-NW 0,75 h 651 W/m 15,3 km/h (3 Bft)
09.04.2014 14:00 11,9 C 46 % 1023,5 hPa 0,0 l/m W-NW 0,50 h 532 W/m 14,1 km/h (3 Bft)
09.04.2014 15:00 13,0 C 41 % 1022,7 hPa 0,0 l/m W-NW 0,92 h 678 W/m 17,0 km/h (3 Bft)
09.04.2014 16:00 13,5 C 38 % 1022,2 hPa 0,0 l/m W 0,92 h 536 W/m 15,0 km/h (3 Bft)
09.04.2014 17:00 12,9 C 40 % 1021,9 hPa 0,0 l/m W-NW 0,42 h 272 W/m 8,9 km/h (2 Bft)
09.04.2014 18:00 12,6 C 43 % 1021,8 hPa 0,0 l/m W 0,33 h 109 W/m 8,2 km/h (2 Bft)
09.04.2014 19:00 11,6 C 45 % 1022,0 hPa 0,0 l/m W-NW 0,08 h 31 W/m 3,9 km/h (1 Bft)
09.04.2014 20:00 8,7 C 59 % 1022,6 hPa 0,0 l/m N 0,00 h 5 W/m 1,3 km/h (1 Bft)
09.04.2014 21:00 6,7 C 68 % 1023,1 hPa 0,0 l/m N 0,00 h 0 W/m 1,3 km/h (1 Bft)
09.04.2014 22:00 6,2 C 74 % 1023,0 hPa 0,0 l/m N 0,00 h 0 W/m 0,7 km/h (0 Bft)
09.04.2014 23:00 5,6 C 75 % 1023,0 hPa 0,0 l/m N 0,00 h 0 W/m 0,4 km/h (0 Bft)
10.04.2014 00:00 5,5 C 76 % 1023,0 hPa 0,0 l/m N 0,00 h 0 W/m 0,3 km/h (0 Bft)
10.04.2014 01:00 5,3 C 79 % 1022,5 hPa 0,0 l/m N 0,00 h 0 W/m 0,0 km/h (0 Bft)
10.04.2014 02:00 5,6 C 80 % 1022,0 hPa 0,0 l/m N 0,00 h 0 W/m 0,0 km/h (0 Bft)
10.04.2014 03:00 5,6 C 81 % 1021,7 hPa 0,0 l/m N 0,00 h 0 W/m 0,8 km/h (0 Bft)
10.04.2014 04:00 5,3 C 82 % 1021,3 hPa 0,0 l/m W-NW 0,00 h 0 W/m 1,2 km/h (1 Bft)
10.04.2014 05:00 4,7 C 84 % 1021,5 hPa 0,0 l/m N 0,00 h 0 W/m 0,0 km/h (0 Bft)
10.04.2014 06:00 4,7 C 85 % 1021,3 hPa 0,0 l/m W-NW 0,00 h 5 W/m 1,5 km/h (1 Bft)
10.04.2014 07:00 4,8 C 86 % 1021,7 hPa 0,0 l/m N 0,00 h 21 W/m 0,1 km/h (0 Bft)
10.04.2014 08:00 5,5 C 84 % 1022,3 hPa 0,0 l/m N 0,00 h 53 W/m 1,6 km/h (1 Bft)
10.04.2014 09:00 6,8 C 84 % 1022,4 hPa 0,0 l/m W-NW 0,00 h 104 W/m 3,1 km/h (1 Bft)
10.04.2014 10:00 8,2 C 79 % 1022,4 hPa 0,0 l/m W-NW 0,00 h 116 W/m 5,9 km/h (2 Bft)
10.04.2014 11:00 9,1 C 77 % 1022,2 hPa 0,0 l/m W-NW 0,00 h 134 W/m 5,2 km/h (1 Bft)
10.04.2014 12:00 9,9 C 70 % 1021,8 hPa 0,0 l/m W-NW 0,00 h 175 W/m 4,4 km/h (1 Bft)
10.04.2014 13:00 10,7 C 64 % 1021,4 hPa 0,0 l/m NW 0,00 h 209 W/m 5,2 km/h (1 Bft)
10.04.2014 14:00 11,6 C 61 % 1020,9 hPa 0,0 l/m NW 0,50 h 428 W/m 4,9 km/h (1 Bft)
10.04.2014 15:00 12,8 C 59 % 1020,1 hPa 0,0 l/m NO 0,17 h 313 W/m 6,7 km/h (2 Bft)
10.04.2014 16:00 13,9 C 56 % 1019,4 hPa 0,0 l/m O-SO 0,75 h 455 W/m 9,5 km/h (2 Bft)
10.04.2014 17:00 14,3 C 55 % 1019,0 hPa 0,0 l/m SO 0,83 h 397 W/m 9,3 km/h (2 Bft)
10.04.2014 18:00 14,2 C 55 % 1018,6 hPa 0,0 l/m SO 1,00 h 219 W/m 8,3 km/h (2 Bft)
10.04.2014 19:00 12,9 C 60 % 1018,7 hPa 0,0 l/m SO 0,00 h 29 W/m 5,1 km/h (1 Bft)
10.04.2014 20:00 9,9 C 73 % 1018,7 hPa 0,0 l/m N 0,00 h 5 W/m 0,8 km/h (0 Bft)
10.04.2014 21:00 7,9 C 81 % 1018,8 hPa 0,0 l/m N 0,00 h 0 W/m 0,0 km/h (0 Bft)
10.04.2014 22:00 7,0 C 84 % 1018,7 hPa 0,0 l/m N 0,00 h 0 W/m 1,3 km/h (1 Bft)
10.04.2014 23:00 6,4 C 87 % 1018,8 hPa 0,0 l/m N 0,00 h 0 W/m 1,6 km/h (1 Bft)
11.04.2014 00:00 5,9 C 88 % 1018,5 hPa 0,0 l/m SO 0,00 h 0 W/m 2,4 km/h (1 Bft)
11.04.2014 01:00 5,3 C 90 % 1018,4 hPa 0,0 l/m N 0,00 h 0 W/m 2,9 km/h (1 Bft)
11.04.2014 02:00 5,0 C 92 % 1017,8 hPa 0,0 l/m SO 0,00 h 0 W/m 3,1 km/h (1 Bft)
11.04.2014 03:00 4,9 C 93 % 1017,2 hPa 0,0 l/m SO 0,00 h 0 W/m 3,7 km/h (1 Bft)
11.04.2014 04:00 4,7 C 94 % 1016,7 hPa 0,0 l/m SO 0,00 h 0 W/m 4,0 km/h (1 Bft)
11.04.2014 05:00 4,2 C 95 % 1016,2 hPa 0,0 l/m N 0,00 h 0 W/m 2,8 km/h (1 Bft)
11.04.2014 06:00 3,9 C 96 % 1016,0 hPa 0,0 l/m SO 0,00 h 7 W/m 4,5 km/h (1 Bft)
11.04.2014 07:00 4,3 C 96 % 1016,4 hPa 0,0 l/m NO 0,00 h 47 W/m 5,9 km/h (2 Bft)
11.04.2014 08:00 6,2 C 93 % 1016,6 hPa 0,0 l/m N-NO 0,92 h 209 W/m 7,0 km/h (2 Bft)
11.04.2014 09:00 9,0 C 85 % 1016,5 hPa 0,0 l/m N-NO 1,00 h 380 W/m 7,6 km/h (2 Bft)
11.04.2014 10:00 12,4 C 71 % 1016,5 hPa 0,0 l/m NO 1,00 h 517 W/m 8,6 km/h (2 Bft)
11.04.2014 11:00 14,1 C 63 % 1016,3 hPa 0,0 l/m NO 1,00 h 622 W/m 13,3 km/h (3 Bft)
11.04.2014 12:00 15,3 C 58 % 1015,8 hPa 0,0 l/m NO 1,00 h 639 W/m 13,2 km/h (3 Bft)
11.04.2014 13:00 16,4 C 55 % 1015,3 hPa 0,0 l/m NO 1,00 h 769 W/m 13,6 km/h (3 Bft)
11.04.2014 14:00 17,5 C 50 % 1014,6 hPa 0,0 l/m NO 1,00 h 759 W/m 11,6 km/h (2 Bft)
11.04.2014 15:00 18,3 C 48 % 1014,1 hPa 0,0 l/m O-NO 1,00 h 678 W/m 11,4 km/h (2 Bft)
11.04.2014 16:00 18,5 C 47 % 1013,7 hPa 0,0 l/m O 1,00 h 570 W/m 14,0 km/h (3 Bft)
11.04.2014 17:00 18,3 C 47 % 1013,2 hPa 0,0 l/m O-NO 1,00 h 400 W/m 12,5 km/h (3 Bft)
11.04.2014 18:00 17,5 C 49 % 1013,2 hPa 0,0 l/m O-NO 1,00 h 199 W/m 12,6 km/h (3 Bft)
11.04.2014 19:00 15,8 C 57 % 1013,4 hPa 0,0 l/m O 0,17 h 31 W/m 14,4 km/h (3 Bft)
11.04.2014 20:00 13,6 C 65 % 1014,0 hPa 0,0 l/m O 0,00 h 5 W/m 12,8 km/h (3 Bft)
11.04.2014 21:00 12,0 C 72 % 1014,8 hPa 0,0 l/m O-NO 0,00 h 0 W/m 7,5 km/h (2 Bft)
11.04.2014 22:00 10,9 C 76 % 1015,2 hPa 0,0 l/m O-NO 0,00 h 0 W/m 6,0 km/h (2 Bft)
11.04.2014 23:00 9,3 C 81 % 1015,2 hPa 0,0 l/m N 0,00 h 0 W/m 1,1 km/h (0 Bft)
12.04.2014 00:00 8,0 C 86 % 1015,0 hPa 0,0 l/m O-NO 0,00 h 0 W/m 1,7 km/h (1 Bft)
12.04.2014 01:00 8,3 C 86 % 1014,9 hPa 0,0 l/m O-NO 0,00 h 0 W/m 5,6 km/h (1 Bft)
12.04.2014 02:00 7,9 C 86 % 1014,4 hPa 0,0 l/m O-NO 0,00 h 0 W/m 3,2 km/h (1 Bft)
12.04.2014 03:00 7,6 C 87 % 1014,1 hPa 0,0 l/m O-NO 0,00 h 0 W/m 4,8 km/h (1 Bft)
12.04.2014 04:00 6,8 C 89 % 1013,6 hPa 0,0 l/m N 0,00 h 0 W/m 3,6 km/h (1 Bft)
12.04.2014 05:00 6,8 C 90 % 1013,7 hPa 0,0 l/m N-NO 0,00 h 0 W/m 6,0 km/h (2 Bft)
12.04.2014 06:00 6,5 C 91 % 1013,5 hPa 0,0 l/m N-NO 0,00 h 7 W/m 3,6 km/h (1 Bft)
12.04.2014 07:00 6,3 C 92 % 1013,8 hPa 0,0 l/m N-NO 0,00 h 35 W/m 5,2 km/h (1 Bft)
12.04.2014 08:00 7,1 C 90 % 1014,2 hPa 0,0 l/m N-NO 0,00 h 95 W/m 5,5 km/h (1 Bft)
12.04.2014 09:00 8,9 C 85 % 1014,4 hPa 0,0 l/m N-NO 0,33 h 255 W/m 5,9 km/h (2 Bft)
12.04.2014 10:00 10,7 C 80 % 1014,6 hPa 0,0 l/m N-NO 0,58 h 342 W/m 5,9 km/h (2 Bft)
12.04.2014 11:00 13,0 C 75 % 1014,8 hPa 0,0 l/m NO 0,75 h 586 W/m 7,4 km/h (2 Bft)
12.04.2014 12:00 15,2 C 66 % 1014,3 hPa 0,0 l/m NO 1,00 h 670 W/m 8,6 km/h (2 Bft)
12.04.2014 13:00 17,2 C 53 % 1013,8 hPa 0,0 l/m O-NO 0,92 h 672 W/m 8,3 km/h (2 Bft)
12.04.2014 14:00 17,0 C 52 % 1013,4 hPa 0,0 l/m SW 0,08 h 255 W/m 5,6 km/h (1 Bft)
12.04.2014 15:00 17,7 C 50 % 1012,7 hPa 0,0 l/m NW 0,67 h 432 W/m 5,9 km/h (2 Bft)
12.04.2014 16:00 18,1 C 51 % 1012,3 hPa 0,0 l/m S-SO 0,42 h 295 W/m 10,7 km/h (2 Bft)
12.04.2014 17:00 17,2 C 58 % 1012,2 hPa 0,0 l/m W-SW 0,42 h 230 W/m 14,0 km/h (3 Bft)
12.04.2014 18:00 16,2 C 61 % 1012,3 hPa 0,0 l/m W-SW 0,00 h 55 W/m 7,6 km/h (2 Bft)
12.04.2014 19:00 15,6 C 66 % 1012,5 hPa 0,0 l/m N 0,00 h 28 W/m 1,6 km/h (1 Bft)
12.04.2014 20:00 13,3 C 83 % 1012,9 hPa 0,0 l/m N 0,00 h 0 W/m 0,1 km/h (0 Bft)
12.04.2014 21:00 11,6 C 87 % 1013,3 hPa 0,0 l/m W 0,00 h 0 W/m 2,0 km/h (1 Bft)
12.04.2014 22:00 11,1 C 86 % 1013,6 hPa 0,0 l/m N 0,00 h 0 W/m 1,1 km/h (0 Bft)
12.04.2014 23:00 11,8 C 78 % 1014,0 hPa 0,0 l/m NW 0,00 h 0 W/m 6,4 km/h (2 Bft)
13.04.2014 00:00 12,2 C 71 % 1014,3 hPa 0,0 l/m N-NW 0,00 h 0 W/m 10,1 km/h (2 Bft)
13.04.2014 01:00 11,8 C 73 % 1014,2 hPa 0,0 l/m N-NW 0,00 h 0 W/m 8,7 km/h (2 Bft)
13.04.2014 02:00 11,5 C 74 % 1014,1 hPa 0,0 l/m NW 0,00 h 0 W/m 8,0 km/h (2 Bft)
13.04.2014 03:00 11,4 C 72 % 1014,2 hPa 0,0 l/m NW 0,00 h 0 W/m 4,9 km/h (1 Bft)
13.04.2014 04:00 10,7 C 76 % 1014,4 hPa 0,0 l/m NW 0,00 h 0 W/m 4,5 km/h (1 Bft)
13.04.2014 05:00 10,7 C 73 % 1014,9 hPa 0,0 l/m W-NW 0,00 h 0 W/m 5,2 km/h (1 Bft)
13.04.2014 06:00 10,2 C 75 % 1015,3 hPa 0,0 l/m W-NW 0,00 h 5 W/m 3,3 km/h (1 Bft)
13.04.2014 07:00 9,8 C 78 % 1016,2 hPa 0,0 l/m N 0,00 h 17 W/m 3,7 km/h (1 Bft)
13.04.2014 08:00 10,2 C 77 % 1016,8 hPa 0,0 l/m NW 0,00 h 61 W/m 7,8 km/h (2 Bft)
13.04.2014 09:00 11,2 C 72 % 1017,0 hPa 0,0 l/m N-NW 0,25 h 238 W/m 8,7 km/h (2 Bft)
13.04.2014 10:00 12,8 C 65 % 1017,1 hPa 0,0 l/m N 1,00 h 477 W/m 9,4 km/h (2 Bft)
13.04.2014 11:00 13,3 C 61 % 1017,2 hPa 0,0 l/m W-NW 0,17 h 294 W/m 11,8 km/h (2 Bft)
13.04.2014 12:00 14,1 C 58 % 1017,1 hPa 0,0 l/m N-NW 0,50 h 421 W/m 12,2 km/h (2 Bft)
13.04.2014 13:00 15,1 C 54 % 1016,7 hPa 0,0 l/m W-NW 0,50 h 499 W/m 15,7 km/h (3 Bft)
13.04.2014 14:00 16,6 C 48 % 1016,3 hPa 0,0 l/m W-NW 0,83 h 679 W/m 13,0 km/h (3 Bft)
13.04.2014 15:00 17,2 C 43 % 1015,7 hPa 0,0 l/m W-NW 0,67 h 590 W/m 15,2 km/h (3 Bft)
13.04.2014 16:00 17,9 C 35 % 1015,5 hPa 0,0 l/m W 1,00 h 592 W/m 17,0 km/h (3 Bft)
13.04.2014 17:00 17,8 C 33 % 1015,1 hPa 0,0 l/m W-NW 0,92 h 403 W/m 12,8 km/h (3 Bft)
13.04.2014 18:00 17,2 C 34 % 1015,1 hPa 0,0 l/m W-NW 0,92 h 224 W/m 10,5 km/h (2 Bft)
13.04.2014 19:00 15,7 C 38 % 1015,3 hPa 0,0 l/m NW 0,08 h 34 W/m 7,4 km/h (2 Bft)
13.04.2014 20:00 13,3 C 49 % 1015,7 hPa 0,0 l/m N 0,00 h 7 W/m 3,1 km/h (1 Bft)
13.04.2014 21:00 12,0 C 56 % 1015,9 hPa 0,0 l/m NW 0,00 h 0 W/m 6,7 km/h (2 Bft)
13.04.2014 22:00 10,5 C 62 % 1016,0 hPa 0,0 l/m NW 0,00 h 0 W/m 2,5 km/h (1 Bft)
13.04.2014 23:00 8,9 C 69 % 1016,1 hPa 0,0 l/m N 0,00 h 0 W/m 2,3 km/h (1 Bft)
Min-Datum _ 09.04.14 13.04.14 12.04.14 - - - - 07.04.14
_ Min-Zeit 07:05 16:55 16:45 - - - - 00:00
Minimum _ 3,7 C 30 % 1012,1 hPa - - - - 0,0 km/h (0 Bft)
Max-Datum _ 07.04.14 07.04.14 09.04.14 08.04.14 - 07.04.14 09.04.14 08.04.14
_ Max-Zeit 15:40 08:40 10:10 07:15 - 07:00 13:25 09:05
Maximum _ 21,2 C 98 % 1025,3 hPa 1,6 l/m - 0,08 h 877 W/m 33,8 km/h
W-SW (5 Bft)
Durchschnitt _ 10,9 C 71 % 1017,4 hPa #3,4 l/m W-NW #42:10 h 274 W/m 7,8 km/h (2 Bft)